sensor_id;sensor_type;location;lat;lon;timestamp;P1;durP1;ratioP1;P2;durP2;ratioP2
43803;SDS011;29430;52.924;-2.388;2022-07-29T00:01:45;4.53;;;0.68;;
43803;SDS011;29430;52.924;-2.388;2022-07-29T00:06:37;4.28;;;0.70;;
43803;SDS011;29430;52.924;-2.388;2022-07-29T00:11:29;1.85;;;0.40;;
43803;SDS011;29430;52.924;-2.388;2022-07-29T00:16:20;2.80;;;0.65;;
43803;SDS011;29430;52.924;-2.388;2022-07-29T00:21:12;3.92;;;0.55;;
43803;SDS011;29430;52.924;-2.388;2022-07-29T00:26:04;7.65;;;0.93;;
43803;SDS011;29430;52.924;-2.388;2022-07-29T00:30:56;3.28;;;0.60;;
43803;SDS011;29430;52.924;-2.388;2022-07-29T00:35:47;3.42;;;0.50;;
43803;SDS011;29430;52.924;-2.388;2022-07-29T00:40:39;2.63;;;0.50;;
43803;SDS011;29430;52.924;-2.388;2022-07-29T00:45:34;3.42;;;0.60;;
43803;SDS011;29430;52.924;-2.388;2022-07-29T00:50:26;4.00;;;0.50;;
43803;SDS011;29430;52.924;-2.388;2022-07-29T00:55:18;3.33;;;0.90;;
43803;SDS011;29430;52.924;-2.388;2022-07-29T01:00:11;2.00;;;0.45;;
43803;SDS011;29430;52.924;-2.388;2022-07-29T01:05:08;2.67;;;0.40;;
43803;SDS011;29430;52.924;-2.388;2022-07-29T01:10:03;3.13;;;0.40;;
43803;SDS011;29430;52.924;-2.388;2022-07-29T01:14:57;2.90;;;0.40;;
43803;SDS011;29430;52.924;-2.388;2022-07-29T01:19:58;3.75;;;0.38;;
43803;SDS011;29430;52.924;-2.388;2022-07-29T01:30:11;2.92;;;0.40;;
43803;SDS011;29430;52.924;-2.388;2022-07-29T01:35:07;5.32;;;0.40;;
43803;SDS011;29430;52.924;-2.388;2022-07-29T01:40:09;5.90;;;0.52;;
43803;SDS011;29430;52.924;-2.388;2022-07-29T01:55:49;3.65;;;0.40;;
43803;SDS011;29430;52.924;-2.388;2022-07-29T02:00:49;1.90;;;0.40;;
43803;SDS011;29430;52.924;-2.388;2022-07-29T02:05:42;3.13;;;0.75;;
43803;SDS011;29430;52.924;-2.388;2022-07-29T02:10:37;4.20;;;0.40;;
43803;SDS011;29430;52.924;-2.388;2022-07-29T02:15:32;3.35;;;0.30;;
43803;SDS011;29430;52.924;-2.388;2022-07-29T02:20:25;1.75;;;0.30;;
43803;SDS011;29430;52.924;-2.388;2022-07-29T02:25:18;3.00;;;0.30;;
43803;SDS011;29430;52.924;-2.388;2022-07-29T02:30:14;1.92;;;0.30;;
43803;SDS011;29430;52.924;-2.388;2022-07-29T02:35:06;1.58;;;0.30;;
43803;SDS011;29430;52.924;-2.388;2022-07-29T02:40:00;2.85;;;0.35;;
43803;SDS011;29430;52.924;-2.388;2022-07-29T02:44:53;4.20;;;0.32;;
43803;SDS011;29430;52.924;-2.388;2022-07-29T02:49:51;3.90;;;0.40;;
43803;SDS011;29430;52.924;-2.388;2022-07-29T02:54:58;3.65;;;0.35;;
43803;SDS011;29430;52.924;-2.388;2022-07-29T02:59:53;1.25;;;0.30;;
43803;SDS011;29430;52.924;-2.388;2022-07-29T03:04:49;2.50;;;0.30;;
43803;SDS011;29430;52.924;-2.388;2022-07-29T03:09:43;1.30;;;0.22;;
43803;SDS011;29430;52.924;-2.388;2022-07-29T03:14:36;1.40;;;0.30;;
43803;SDS011;29430;52.924;-2.388;2022-07-29T03:19:28;3.50;;;0.30;;
43803;SDS011;29430;52.924;-2.388;2022-07-29T03:24:33;3.80;;;0.28;;
43803;SDS011;29430;52.924;-2.388;2022-07-29T03:29:26;1.33;;;0.20;;
43803;SDS011;29430;52.924;-2.388;2022-07-29T03:34:24;1.17;;;0.22;;
43803;SDS011;29430;52.924;-2.388;2022-07-29T03:39:20;1.83;;;0.40;;
43803;SDS011;29430;52.924;-2.388;2022-07-29T03:44:14;2.08;;;0.20;;
43803;SDS011;29430;52.924;-2.388;2022-07-29T03:49:08;2.72;;;0.30;;
43803;SDS011;29430;52.924;-2.388;2022-07-29T03:54:02;2.25;;;0.30;;
43803;SDS011;29430;52.924;-2.388;2022-07-29T04:03:52;1.00;;;0.20;;
43803;SDS011;29430;52.924;-2.388;2022-07-29T04:08:44;3.22;;;0.30;;
43803;SDS011;29430;52.924;-2.388;2022-07-29T04:13:36;2.42;;;0.20;;
43803;SDS011;29430;52.924;-2.388;2022-07-29T04:18:28;1.63;;;0.25;;
43803;SDS011;29430;52.924;-2.388;2022-07-29T04:23:19;1.33;;;0.30;;
43803;SDS011;29430;52.924;-2.388;2022-07-29T04:28:11;4.20;;;0.32;;
43803;SDS011;29430;52.924;-2.388;2022-07-29T04:33:04;1.10;;;0.30;;
43803;SDS011;29430;52.924;-2.388;2022-07-29T04:37:57;2.63;;;0.30;;
43803;SDS011;29430;52.924;-2.388;2022-07-29T04:42:48;2.33;;;0.30;;
43803;SDS011;29430;52.924;-2.388;2022-07-29T04:47:40;1.48;;;0.38;;
43803;SDS011;29430;52.924;-2.388;2022-07-29T04:52:32;2.38;;;0.30;;
43803;SDS011;29430;52.924;-2.388;2022-07-29T04:57:24;3.03;;;0.30;;
43803;SDS011;29430;52.924;-2.388;2022-07-29T05:02:15;1.88;;;0.35;;
43803;SDS011;29430;52.924;-2.388;2022-07-29T05:07:07;1.65;;;0.30;;
43803;SDS011;29430;52.924;-2.388;2022-07-29T05:11:59;1.65;;;0.32;;
43803;SDS011;29430;52.924;-2.388;2022-07-29T05:16:50;2.08;;;0.38;;
43803;SDS011;29430;52.924;-2.388;2022-07-29T05:21:42;1.70;;;0.40;;
43803;SDS011;29430;52.924;-2.388;2022-07-29T05:26:35;2.63;;;0.40;;
43803;SDS011;29430;52.924;-2.388;2022-07-29T05:31:27;2.47;;;0.47;;
43803;SDS011;29430;52.924;-2.388;2022-07-29T05:36:19;3.55;;;0.40;;
43803;SDS011;29430;52.924;-2.388;2022-07-29T05:41:10;3.83;;;0.40;;
43803;SDS011;29430;52.924;-2.388;2022-07-29T05:46:02;7.65;;;0.75;;
43803;SDS011;29430;52.924;-2.388;2022-07-29T05:50:54;4.25;;;0.82;;
43803;SDS011;29430;52.924;-2.388;2022-07-29T05:55:46;6.57;;;0.50;;
43803;SDS011;29430;52.924;-2.388;2022-07-29T06:00:39;4.97;;;0.60;;
43803;SDS011;29430;52.924;-2.388;2022-07-29T06:05:31;2.80;;;0.40;;
43803;SDS011;29430;52.924;-2.388;2022-07-29T06:10:22;1.73;;;0.40;;
43803;SDS011;29430;52.924;-2.388;2022-07-29T06:15:17;4.55;;;0.50;;
43803;SDS011;29430;52.924;-2.388;2022-07-29T06:20:09;4.35;;;0.52;;
43803;SDS011;29430;52.924;-2.388;2022-07-29T06:25:02;2.58;;;0.50;;
43803;SDS011;29430;52.924;-2.388;2022-07-29T06:29:55;2.53;;;0.40;;
43803;SDS011;29430;52.924;-2.388;2022-07-29T06:34:47;4.15;;;0.40;;
43803;SDS011;29430;52.924;-2.388;2022-07-29T06:39:40;6.68;;;0.73;;
43803;SDS011;29430;52.924;-2.388;2022-07-29T06:44:31;2.63;;;0.85;;
43803;SDS011;29430;52.924;-2.388;2022-07-29T06:49:25;5.10;;;0.60;;
43803;SDS011;29430;52.924;-2.388;2022-07-29T06:54:17;5.20;;;0.50;;
43803;SDS011;29430;52.924;-2.388;2022-07-29T06:59:10;6.78;;;0.50;;
43803;SDS011;29430;52.924;-2.388;2022-07-29T07:04:03;3.38;;;0.43;;
43803;SDS011;29430;52.924;-2.388;2022-07-29T07:08:54;6.25;;;0.50;;
43803;SDS011;29430;52.924;-2.388;2022-07-29T07:13:46;4.63;;;0.70;;
43803;SDS011;29430;52.924;-2.388;2022-07-29T07:18:38;3.88;;;0.50;;
43803;SDS011;29430;52.924;-2.388;2022-07-29T07:23:30;4.38;;;0.60;;
43803;SDS011;29430;52.924;-2.388;2022-07-29T07:28:22;3.65;;;0.70;;
43803;SDS011;29430;52.924;-2.388;2022-07-29T07:33:15;3.90;;;0.45;;
43803;SDS011;29430;52.924;-2.388;2022-07-29T07:38:07;4.75;;;0.80;;
43803;SDS011;29430;52.924;-2.388;2022-07-29T07:42:58;3.45;;;0.60;;
43803;SDS011;29430;52.924;-2.388;2022-07-29T07:47:50;3.40;;;0.82;;
43803;SDS011;29430;52.924;-2.388;2022-07-29T07:57:40;3.08;;;0.57;;
43803;SDS011;29430;52.924;-2.388;2022-07-29T08:02:32;3.60;;;0.60;;
43803;SDS011;29430;52.924;-2.388;2022-07-29T08:07:24;2.08;;;0.52;;
43803;SDS011;29430;52.924;-2.388;2022-07-29T08:12:15;3.75;;;0.70;;
43803;SDS011;29430;52.924;-2.388;2022-07-29T08:17:07;3.35;;;0.40;;
43803;SDS011;29430;52.924;-2.388;2022-07-29T08:21:59;2.88;;;0.70;;
43803;SDS011;29430;52.924;-2.388;2022-07-29T08:26:50;3.80;;;0.60;;
43803;SDS011;29430;52.924;-2.388;2022-07-29T08:31:42;5.15;;;0.60;;
43803;SDS011;29430;52.924;-2.388;2022-07-29T08:36:34;4.22;;;0.60;;
43803;SDS011;29430;52.924;-2.388;2022-07-29T08:41:26;1.90;;;0.60;;
43803;SDS011;29430;52.924;-2.388;2022-07-29T08:46:20;7.95;;;0.60;;
43803;SDS011;29430;52.924;-2.388;2022-07-29T08:51:13;3.15;;;0.60;;
43803;SDS011;29430;52.924;-2.388;2022-07-29T08:56:06;4.43;;;0.80;;
43803;SDS011;29430;52.924;-2.388;2022-07-29T09:00:58;4.50;;;0.70;;
43803;SDS011;29430;52.924;-2.388;2022-07-29T09:05:53;4.82;;;0.60;;
43803;SDS011;29430;52.924;-2.388;2022-07-29T09:10:45;11.93;;;1.25;;
43803;SDS011;29430;52.924;-2.388;2022-07-29T09:15:38;2.53;;;0.60;;
43803;SDS011;29430;52.924;-2.388;2022-07-29T09:20:29;4.47;;;0.90;;
43803;SDS011;29430;52.924;-2.388;2022-07-29T09:25:41;3.85;;;0.73;;
43803;SDS011;29430;52.924;-2.388;2022-07-29T09:30:33;2.42;;;0.63;;
43803;SDS011;29430;52.924;-2.388;2022-07-29T09:35:25;5.15;;;1.10;;
43803;SDS011;29430;52.924;-2.388;2022-07-29T09:40:19;3.38;;;0.80;;
43803;SDS011;29430;52.924;-2.388;2022-07-29T09:45:32;5.95;;;0.80;;
43803;SDS011;29430;52.924;-2.388;2022-07-29T09:50:38;2.80;;;0.70;;
43803;SDS011;29430;52.924;-2.388;2022-07-29T09:55:31;7.38;;;1.10;;
43803;SDS011;29430;52.924;-2.388;2022-07-29T10:00:24;4.40;;;0.80;;
43803;SDS011;29430;52.924;-2.388;2022-07-29T10:05:23;4.80;;;1.02;;
43803;SDS011;29430;52.924;-2.388;2022-07-29T10:10:20;5.32;;;0.80;;
43803;SDS011;29430;52.924;-2.388;2022-07-29T10:15:13;3.47;;;0.77;;
43803;SDS011;29430;52.924;-2.388;2022-07-29T10:20:07;4.43;;;0.80;;
43803;SDS011;29430;52.924;-2.388;2022-07-29T10:25:06;6.07;;;0.85;;
43803;SDS011;29430;52.924;-2.388;2022-07-29T10:30:00;6.60;;;1.38;;
43803;SDS011;29430;52.924;-2.388;2022-07-29T10:45:59;5.80;;;1.00;;
43803;SDS011;29430;52.924;-2.388;2022-07-29T10:50:54;3.80;;;0.82;;
43803;SDS011;29430;52.924;-2.388;2022-07-29T10:55:47;7.22;;;1.48;;
43803;SDS011;29430;52.924;-2.388;2022-07-29T11:00:44;12.68;;;1.48;;
43803;SDS011;29430;52.924;-2.388;2022-07-29T11:05:52;5.15;;;1.20;;
43803;SDS011;29430;52.924;-2.388;2022-07-29T11:10:46;6.93;;;1.30;;
43803;SDS011;29430;52.924;-2.388;2022-07-29T11:15:52;4.00;;;1.40;;
43803;SDS011;29430;52.924;-2.388;2022-07-29T11:20:46;4.03;;;1.40;;
43803;SDS011;29430;52.924;-2.388;2022-07-29T11:25:45;4.47;;;1.10;;
43803;SDS011;29430;52.924;-2.388;2022-07-29T11:30:57;4.90;;;1.45;;
43803;SDS011;29430;52.924;-2.388;2022-07-29T11:36:11;3.33;;;1.30;;
43803;SDS011;29430;52.924;-2.388;2022-07-29T11:46:11;4.88;;;1.30;;
43803;SDS011;29430;52.924;-2.388;2022-07-29T11:51:04;8.45;;;1.85;;
43803;SDS011;29430;52.924;-2.388;2022-07-29T11:56:03;5.85;;;1.13;;
43803;SDS011;29430;52.924;-2.388;2022-07-29T12:00:55;4.88;;;1.17;;
43803;SDS011;29430;52.924;-2.388;2022-07-29T12:05:55;5.15;;;1.30;;
43803;SDS011;29430;52.924;-2.388;2022-07-29T12:10:50;3.17;;;1.00;;
43803;SDS011;29430;52.924;-2.388;2022-07-29T12:15:51;3.70;;;1.02;;
43803;SDS011;29430;52.924;-2.388;2022-07-29T12:21:00;5.85;;;1.38;;
43803;SDS011;29430;52.924;-2.388;2022-07-29T12:25:55;5.45;;;1.10;;
43803;SDS011;29430;52.924;-2.388;2022-07-29T12:30:49;2.42;;;1.02;;
43803;SDS011;29430;52.924;-2.388;2022-07-29T12:35:42;3.55;;;0.93;;
43803;SDS011;29430;52.924;-2.388;2022-07-29T12:40:53;4.35;;;1.23;;
43803;SDS011;29430;52.924;-2.388;2022-07-29T12:45:47;3.65;;;1.13;;
43803;SDS011;29430;52.924;-2.388;2022-07-29T12:50:57;5.97;;;1.25;;
43803;SDS011;29430;52.924;-2.388;2022-07-29T12:55:51;3.65;;;0.93;;
43803;SDS011;29430;52.924;-2.388;2022-07-29T13:00:43;3.13;;;0.98;;
43803;SDS011;29430;52.924;-2.388;2022-07-29T13:05:41;9.02;;;1.30;;
43803;SDS011;29430;52.924;-2.388;2022-07-29T13:10:40;4.47;;;1.30;;
43803;SDS011;29430;52.924;-2.388;2022-07-29T13:15:32;6.30;;;1.02;;
43803;SDS011;29430;52.924;-2.388;2022-07-29T13:20:26;8.68;;;1.05;;
43803;SDS011;29430;52.924;-2.388;2022-07-29T13:25:24;3.97;;;0.70;;
43803;SDS011;29430;52.924;-2.388;2022-07-29T13:30:18;1.95;;;1.05;;
43803;SDS011;29430;52.924;-2.388;2022-07-29T13:35:09;4.15;;;0.88;;
43803;SDS011;29430;52.924;-2.388;2022-07-29T13:40:02;4.38;;;1.02;;
43803;SDS011;29430;52.924;-2.388;2022-07-29T13:44:54;6.07;;;0.95;;
43803;SDS011;29430;52.924;-2.388;2022-07-29T13:49:46;6.03;;;0.70;;
43803;SDS011;29430;52.924;-2.388;2022-07-29T13:54:38;3.22;;;0.95;;
43803;SDS011;29430;52.924;-2.388;2022-07-29T13:59:33;3.05;;;0.77;;
43803;SDS011;29430;52.924;-2.388;2022-07-29T14:04:24;2.72;;;0.80;;
43803;SDS011;29430;52.924;-2.388;2022-07-29T14:09:17;3.53;;;0.80;;
43803;SDS011;29430;52.924;-2.388;2022-07-29T14:14:09;4.97;;;0.90;;
43803;SDS011;29430;52.924;-2.388;2022-07-29T14:19:01;1.77;;;0.70;;
43803;SDS011;29430;52.924;-2.388;2022-07-29T14:23:53;4.55;;;0.70;;
43803;SDS011;29430;52.924;-2.388;2022-07-29T14:28:46;2.50;;;0.80;;
43803;SDS011;29430;52.924;-2.388;2022-07-29T14:33:38;4.10;;;0.70;;
43803;SDS011;29430;52.924;-2.388;2022-07-29T14:38:29;4.35;;;1.08;;
43803;SDS011;29430;52.924;-2.388;2022-07-29T14:43:21;4.55;;;1.00;;
43803;SDS011;29430;52.924;-2.388;2022-07-29T14:48:13;3.97;;;1.10;;
43803;SDS011;29430;52.924;-2.388;2022-07-29T14:53:04;5.03;;;1.55;;
43803;SDS011;29430;52.924;-2.388;2022-07-29T14:57:56;6.38;;;1.10;;
43803;SDS011;29430;52.924;-2.388;2022-07-29T15:02:59;2.83;;;1.23;;
43803;SDS011;29430;52.924;-2.388;2022-07-29T15:07:53;2.85;;;1.08;;
43803;SDS011;29430;52.924;-2.388;2022-07-29T15:12:44;3.17;;;0.88;;
43803;SDS011;29430;52.924;-2.388;2022-07-29T15:17:36;3.88;;;1.17;;
43803;SDS011;29430;52.924;-2.388;2022-07-29T15:22:28;2.60;;;0.93;;
43803;SDS011;29430;52.924;-2.388;2022-07-29T15:27:19;3.38;;;0.90;;
43803;SDS011;29430;52.924;-2.388;2022-07-29T15:32:11;4.60;;;0.80;;
43803;SDS011;29430;52.924;-2.388;2022-07-29T15:37:04;4.72;;;1.60;;
43803;SDS011;29430;52.924;-2.388;2022-07-29T15:41:56;3.40;;;1.35;;
43803;SDS011;29430;52.924;-2.388;2022-07-29T15:46:51;4.40;;;1.33;;
43803;SDS011;29430;52.924;-2.388;2022-07-29T15:51:54;3.63;;;1.05;;
43803;SDS011;29430;52.924;-2.388;2022-07-29T15:56:50;6.40;;;0.88;;
43803;SDS011;29430;52.924;-2.388;2022-07-29T16:01:41;6.60;;;1.42;;
43803;SDS011;29430;52.924;-2.388;2022-07-29T16:06:33;4.78;;;1.08;;
43803;SDS011;29430;52.924;-2.388;2022-07-29T16:11:25;5.88;;;1.23;;
43803;SDS011;29430;52.924;-2.388;2022-07-29T16:16:16;4.13;;;1.30;;
43803;SDS011;29430;52.924;-2.388;2022-07-29T16:21:09;5.03;;;1.08;;
43803;SDS011;29430;52.924;-2.388;2022-07-29T16:26:01;3.47;;;0.82;;
43803;SDS011;29430;52.924;-2.388;2022-07-29T16:30:53;4.53;;;1.08;;
43803;SDS011;29430;52.924;-2.388;2022-07-29T16:35:45;4.78;;;1.27;;
43803;SDS011;29430;52.924;-2.388;2022-07-29T16:40:37;3.47;;;0.80;;
43803;SDS011;29430;52.924;-2.388;2022-07-29T16:45:29;6.70;;;1.52;;
43803;SDS011;29430;52.924;-2.388;2022-07-29T16:50:37;3.72;;;1.30;;
43803;SDS011;29430;52.924;-2.388;2022-07-29T16:55:29;9.65;;;1.33;;
43803;SDS011;29430;52.924;-2.388;2022-07-29T17:00:21;3.88;;;1.10;;
43803;SDS011;29430;52.924;-2.388;2022-07-29T17:05:13;4.13;;;1.10;;
43803;SDS011;29430;52.924;-2.388;2022-07-29T17:10:06;9.15;;;1.42;;
43803;SDS011;29430;52.924;-2.388;2022-07-29T17:14:59;3.28;;;1.50;;
43803;SDS011;29430;52.924;-2.388;2022-07-29T17:19:51;5.60;;;1.55;;
43803;SDS011;29430;52.924;-2.388;2022-07-29T17:24:42;6.30;;;1.52;;
43803;SDS011;29430;52.924;-2.388;2022-07-29T17:29:36;8.35;;;2.05;;
43803;SDS011;29430;52.924;-2.388;2022-07-29T17:34:29;6.15;;;1.40;;
43803;SDS011;29430;52.924;-2.388;2022-07-29T17:39:21;6.90;;;1.58;;
43803;SDS011;29430;52.924;-2.388;2022-07-29T17:44:12;5.00;;;1.58;;
43803;SDS011;29430;52.924;-2.388;2022-07-29T17:49:05;5.28;;;1.48;;
43803;SDS011;29430;52.924;-2.388;2022-07-29T17:53:57;5.05;;;1.00;;
43803;SDS011;29430;52.924;-2.388;2022-07-29T17:58:50;3.78;;;1.00;;
43803;SDS011;29430;52.924;-2.388;2022-07-29T18:03:42;3.28;;;0.98;;
43803;SDS011;29430;52.924;-2.388;2022-07-29T18:08:34;2.70;;;0.90;;
43803;SDS011;29430;52.924;-2.388;2022-07-29T18:13:27;6.10;;;1.45;;
43803;SDS011;29430;52.924;-2.388;2022-07-29T18:18:18;7.80;;;1.42;;
43803;SDS011;29430;52.924;-2.388;2022-07-29T18:23:10;4.90;;;1.20;;
43803;SDS011;29430;52.924;-2.388;2022-07-29T18:28:02;6.00;;;1.23;;
43803;SDS011;29430;52.924;-2.388;2022-07-29T18:32:54;6.07;;;1.33;;
43803;SDS011;29430;52.924;-2.388;2022-07-29T18:38:06;4.10;;;1.13;;
43803;SDS011;29430;52.924;-2.388;2022-07-29T18:42:57;3.60;;;1.45;;
43803;SDS011;29430;52.924;-2.388;2022-07-29T18:47:49;5.63;;;1.13;;
43803;SDS011;29430;52.924;-2.388;2022-07-29T18:52:43;4.70;;;1.15;;
43803;SDS011;29430;52.924;-2.388;2022-07-29T18:57:36;3.30;;;1.23;;
43803;SDS011;29430;52.924;-2.388;2022-07-29T19:02:46;3.53;;;1.45;;
43803;SDS011;29430;52.924;-2.388;2022-07-29T19:07:39;6.45;;;1.20;;
43803;SDS011;29430;52.924;-2.388;2022-07-29T19:12:31;4.13;;;0.93;;
43803;SDS011;29430;52.924;-2.388;2022-07-29T19:17:22;6.97;;;1.40;;
43803;SDS011;29430;52.924;-2.388;2022-07-29T19:22:14;3.33;;;1.23;;
43803;SDS011;29430;52.924;-2.388;2022-07-29T19:27:06;4.60;;;1.33;;
43803;SDS011;29430;52.924;-2.388;2022-07-29T19:31:57;4.43;;;1.02;;
43803;SDS011;29430;52.924;-2.388;2022-07-29T19:36:50;4.00;;;1.00;;
43803;SDS011;29430;52.924;-2.388;2022-07-29T19:41:43;5.30;;;1.30;;
43803;SDS011;29430;52.924;-2.388;2022-07-29T19:46:35;2.95;;;0.90;;
43803;SDS011;29430;52.924;-2.388;2022-07-29T19:51:27;5.03;;;1.15;;
43803;SDS011;29430;52.924;-2.388;2022-07-29T19:56:19;5.35;;;1.27;;
43803;SDS011;29430;52.924;-2.388;2022-07-29T20:01:11;4.85;;;1.00;;
43803;SDS011;29430;52.924;-2.388;2022-07-29T20:06:02;4.80;;;1.58;;
43803;SDS011;29430;52.924;-2.388;2022-07-29T20:10:54;3.35;;;0.90;;
43803;SDS011;29430;52.924;-2.388;2022-07-29T20:15:46;4.38;;;0.98;;
43803;SDS011;29430;52.924;-2.388;2022-07-29T20:20:38;4.72;;;1.20;;
43803;SDS011;29430;52.924;-2.388;2022-07-29T20:25:30;8.00;;;1.30;;
43803;SDS011;29430;52.924;-2.388;2022-07-29T20:30:21;3.03;;;0.95;;
43803;SDS011;29430;52.924;-2.388;2022-07-29T20:35:13;4.47;;;1.27;;
43803;SDS011;29430;52.924;-2.388;2022-07-29T20:40:06;4.65;;;1.33;;
43803;SDS011;29430;52.924;-2.388;2022-07-29T20:45:03;7.38;;;1.35;;
43803;SDS011;29430;52.924;-2.388;2022-07-29T20:49:59;6.35;;;1.40;;
43803;SDS011;29430;52.924;-2.388;2022-07-29T20:54:50;6.60;;;1.40;;
43803;SDS011;29430;52.924;-2.388;2022-07-29T20:59:42;4.80;;;1.52;;
43803;SDS011;29430;52.924;-2.388;2022-07-29T21:04:36;8.10;;;1.42;;
43803;SDS011;29430;52.924;-2.388;2022-07-29T21:09:27;5.00;;;1.25;;
43803;SDS011;29430;52.924;-2.388;2022-07-29T21:14:19;4.22;;;0.98;;
43803;SDS011;29430;52.924;-2.388;2022-07-29T21:19:32;6.75;;;1.27;;
43803;SDS011;29430;52.924;-2.388;2022-07-29T21:24:24;3.97;;;0.90;;
43803;SDS011;29430;52.924;-2.388;2022-07-29T21:29:15;6.38;;;0.98;;
43803;SDS011;29430;52.924;-2.388;2022-07-29T21:34:08;3.15;;;0.88;;
43803;SDS011;29430;52.924;-2.388;2022-07-29T21:39:01;2.90;;;0.65;;
43803;SDS011;29430;52.924;-2.388;2022-07-29T21:43:57;3.53;;;0.60;;
43803;SDS011;29430;52.924;-2.388;2022-07-29T21:48:51;2.58;;;0.75;;
43803;SDS011;29430;52.924;-2.388;2022-07-29T21:53:43;1.80;;;0.60;;
43803;SDS011;29430;52.924;-2.388;2022-07-29T21:58:35;4.75;;;0.82;;
43803;SDS011;29430;52.924;-2.388;2022-07-29T22:03:27;4.57;;;0.80;;
43803;SDS011;29430;52.924;-2.388;2022-07-29T22:08:19;4.80;;;0.60;;
43803;SDS011;29430;52.924;-2.388;2022-07-29T22:13:11;4.10;;;0.70;;
43803;SDS011;29430;52.924;-2.388;2022-07-29T22:18:03;2.95;;;0.70;;
43803;SDS011;29430;52.924;-2.388;2022-07-29T22:22:54;4.78;;;0.70;;
43803;SDS011;29430;52.924;-2.388;2022-07-29T22:27:46;2.55;;;0.63;;
43803;SDS011;29430;52.924;-2.388;2022-07-29T22:32:38;5.50;;;0.88;;
43803;SDS011;29430;52.924;-2.388;2022-07-29T22:37:30;2.38;;;0.70;;
43803;SDS011;29430;52.924;-2.388;2022-07-29T22:42:22;1.63;;;0.50;;
43803;SDS011;29430;52.924;-2.388;2022-07-29T22:47:13;4.32;;;0.60;;
43803;SDS011;29430;52.924;-2.388;2022-07-29T22:52:05;1.73;;;0.60;;
43803;SDS011;29430;52.924;-2.388;2022-07-29T22:56:57;2.35;;;0.60;;
43803;SDS011;29430;52.924;-2.388;2022-07-29T23:01:49;3.13;;;0.60;;
43803;SDS011;29430;52.924;-2.388;2022-07-29T23:06:41;5.13;;;0.65;;
43803;SDS011;29430;52.924;-2.388;2022-07-29T23:11:32;5.78;;;0.60;;
43803;SDS011;29430;52.924;-2.388;2022-07-29T23:16:24;10.60;;;1.42;;
43803;SDS011;29430;52.924;-2.388;2022-07-29T23:21:17;2.95;;;1.00;;
43803;SDS011;29430;52.924;-2.388;2022-07-29T23:26:11;7.05;;;1.10;;
43803;SDS011;29430;52.924;-2.388;2022-07-29T23:31:06;4.25;;;1.63;;
43803;SDS011;29430;52.924;-2.388;2022-07-29T23:35:58;9.70;;;2.97;;
43803;SDS011;29430;52.924;-2.388;2022-07-29T23:40:50;6.32;;;2.15;;
43803;SDS011;29430;52.924;-2.388;2022-07-29T23:45:42;7.07;;;2.40;;
43803;SDS011;29430;52.924;-2.388;2022-07-29T23:50:38;4.27;;;2.43;;
43803;SDS011;29430;52.924;-2.388;2022-07-29T23:55:30;5.53;;;3.10;;
